createdAt,value
2017-11-25T00:00:27.765Z,16.83
2017-11-25T00:02:55.190Z,17.47
2017-11-25T00:05:22.841Z,18.43
2017-11-25T00:07:50.285Z,16.63
2017-11-25T00:10:18.050Z,16.27
2017-11-25T00:12:45.735Z,16.80
2017-11-25T00:15:13.385Z,17.43
2017-11-25T00:17:40.949Z,18.47
2017-11-25T00:20:08.689Z,19.23
2017-11-25T00:22:36.074Z,19.20
2017-11-25T00:25:03.701Z,17.73
2017-11-25T00:27:31.388Z,15.97
2017-11-25T00:29:59.074Z,18.47
2017-11-25T00:32:26.719Z,17.53
2017-11-25T00:34:54.371Z,15.80
2017-11-25T00:37:21.709Z,16.30
2017-11-25T00:39:49.390Z,15.63
2017-11-25T00:42:17.165Z,16.17
2017-11-25T00:44:44.800Z,15.03
2017-11-25T00:47:12.126Z,15.10
2017-11-25T00:49:39.457Z,12.97
2017-11-25T00:52:06.780Z,14.63
2017-11-25T00:54:34.432Z,13.97
2017-11-25T00:57:01.737Z,14.17
2017-11-25T00:59:29.141Z,13.30
2017-11-25T01:01:56.451Z,13.90
2017-11-25T01:04:24.153Z,13.40
2017-11-25T01:06:51.461Z,13.93
2017-11-25T01:09:18.785Z,14.63
2017-11-25T01:11:46.423Z,15.30
2017-11-25T01:14:14.114Z,15.67
2017-11-25T01:16:41.437Z,15.40
2017-11-25T01:19:08.753Z,14.53
2017-11-25T01:21:36.165Z,15.60
2017-11-25T01:24:03.827Z,14.67
2017-11-25T01:26:31.498Z,13.73
2017-11-25T01:28:59.113Z,14.87
2017-11-25T01:31:26.914Z,15.43
2017-11-25T01:33:54.226Z,14.60
2017-11-25T01:36:21.622Z,13.53
2017-11-25T01:38:49.270Z,15.27
2017-11-25T01:41:16.630Z,13.50
2017-11-25T01:43:43.939Z,13.47
2017-11-25T01:46:11.414Z,15.47
2017-11-25T01:48:38.785Z,15.10
2017-11-25T01:51:06.089Z,14.13
2017-11-25T01:53:33.414Z,16.20
2017-11-25T01:56:01.097Z,15.10
2017-11-25T01:58:28.431Z,15.37
2017-11-25T02:00:56.091Z,14.60
2017-11-25T02:03:23.426Z,15.20
2017-11-25T02:05:50.790Z,13.90
2017-11-25T02:08:18.110Z,13.90
2017-11-25T02:10:45.502Z,14.07
2017-11-25T02:13:13.252Z,13.83
2017-11-25T02:15:40.637Z,14.40
2017-11-25T02:18:08.257Z,13.70
2017-11-25T02:20:36.208Z,13.67
2017-11-25T02:23:03.887Z,14.07
2017-11-25T02:25:31.285Z,13.23
2017-11-25T02:27:58.905Z,12.63
2017-11-25T02:30:26.281Z,13.27
2017-11-25T02:32:53.911Z,13.90
2017-11-25T02:35:21.292Z,14.00
2017-11-25T02:37:48.951Z,14.40
2017-11-25T02:40:16.269Z,13.57
2017-11-25T02:42:43.961Z,12.90
2017-11-25T02:45:11.277Z,13.70
2017-11-25T02:47:38.976Z,13.60
2017-11-25T02:50:06.343Z,13.63
2017-11-25T02:52:34.800Z,13.20
2017-11-25T02:55:02.117Z,14.23
2017-11-25T02:57:29.432Z,13.70
2017-11-25T02:59:57.133Z,13.33
2017-11-25T03:02:24.501Z,12.70
2017-11-25T03:04:51.901Z,13.80
2017-11-25T03:07:19.559Z,13.70
2017-11-25T03:09:46.886Z,13.43
2017-11-25T03:12:14.253Z,13.13
2017-11-25T03:14:41.754Z,14.20
2017-11-25T03:17:09.411Z,14.60
2017-11-25T03:19:37.041Z,12.87
2017-11-25T03:22:04.528Z,13.23
2017-11-25T03:24:32.185Z,13.30
2017-11-25T03:26:59.857Z,12.30
2017-11-25T03:29:27.159Z,13.90
2017-11-25T03:31:54.571Z,13.07
2017-11-25T03:34:21.897Z,14.43
2017-11-25T03:36:49.555Z,13.40
2017-11-25T03:39:16.856Z,13.30
2017-11-25T03:41:44.195Z,12.83
2017-11-25T03:44:11.810Z,14.00
2017-11-25T03:46:39.561Z,13.40
2017-11-25T03:49:06.938Z,12.67
2017-11-25T03:51:34.321Z,12.70
2017-11-25T03:54:02.180Z,12.93
2017-11-25T03:56:30.017Z,13.00
2017-11-25T03:58:57.344Z,13.43
2017-11-25T04:01:24.730Z,12.20
2017-11-25T04:03:52.061Z,13.63
2017-11-25T04:06:19.438Z,13.53
2017-11-25T04:08:46.769Z,14.33
2017-11-25T04:11:14.164Z,14.37
2017-11-25T04:13:42.042Z,13.23
2017-11-25T04:16:09.709Z,12.90
2017-11-25T04:18:37.402Z,12.63
2017-11-25T04:21:04.693Z,13.97
2017-11-25T04:23:31.997Z,12.70
2017-11-25T04:25:59.327Z,12.63
2017-11-25T04:28:26.950Z,13.87
2017-11-25T04:30:54.326Z,12.57
2017-11-25T04:33:21.965Z,13.50
2017-11-25T04:35:49.346Z,13.47
2017-11-25T04:38:16.996Z,12.70
2017-11-25T04:40:44.666Z,12.47
2017-11-25T04:43:12.324Z,12.90
2017-11-25T04:45:40.044Z,11.67
2017-11-25T04:48:07.466Z,12.40
2017-11-25T04:50:35.104Z,13.10
2017-11-25T04:53:02.452Z,11.47
2017-11-25T04:55:29.767Z,11.20
2017-11-25T04:57:57.183Z,12.90
2017-11-25T05:00:24.876Z,12.30
2017-11-25T05:02:52.198Z,13.23
2017-11-25T05:05:19.850Z,12.67
2017-11-25T05:07:47.564Z,12.07
2017-11-25T05:10:14.875Z,12.60
2017-11-25T05:12:42.605Z,13.60
2017-11-25T05:15:10.289Z,13.93
2017-11-25T05:17:37.956Z,13.07
2017-11-25T05:20:05.265Z,11.90
2017-11-25T05:22:32.803Z,13.00
2017-11-25T05:25:00.139Z,12.80
2017-11-25T05:27:27.460Z,12.33
2017-11-25T05:29:54.791Z,12.53
2017-11-25T05:32:22.582Z,13.13
2017-11-25T05:34:49.963Z,12.10
2017-11-25T05:37:17.589Z,11.43
2017-11-25T05:39:44.945Z,12.17
2017-11-25T05:42:12.297Z,11.60
2017-11-25T05:44:39.609Z,13.03
2017-11-25T05:47:06.937Z,13.30
2017-11-25T05:49:34.570Z,12.40
2017-11-25T05:52:01.917Z,11.70
2017-11-25T05:54:29.265Z,12.47
2017-11-25T05:56:56.982Z,10.47
2017-11-25T05:59:24.705Z,11.90
2017-11-25T06:01:52.052Z,11.73
2017-11-25T06:04:19.403Z,11.47
2017-11-25T06:06:46.775Z,10.67
2017-11-25T06:09:14.108Z,10.73
2017-11-25T06:11:41.496Z,10.63
2017-11-25T06:14:09.161Z,11.13
2017-11-25T06:16:36.789Z,10.60
2017-11-25T06:19:04.110Z,10.50
2017-11-25T06:21:31.421Z,9.33
2017-11-25T06:23:59.059Z,10.47
2017-11-25T06:26:26.444Z,9.40
2017-11-25T06:28:53.904Z,11.10
2017-11-25T06:31:21.545Z,9.30
2017-11-25T06:33:48.848Z,9.27
2017-11-25T06:36:16.205Z,9.80
2017-11-25T06:38:43.505Z,9.90
2017-11-25T06:41:10.862Z,8.00
2017-11-25T06:43:38.166Z,10.00
2017-11-25T06:46:05.493Z,10.50
2017-11-25T06:48:33.124Z,9.50
2017-11-25T06:51:00.429Z,9.93
2017-11-25T06:53:27.747Z,9.73
2017-11-25T06:55:55.387Z,9.27
2017-11-25T06:58:23.166Z,10.07
2017-11-25T07:00:50.461Z,9.57
2017-11-25T07:03:17.801Z,9.87
2017-11-25T07:05:45.414Z,9.33
2017-11-25T07:08:13.077Z,9.53
2017-11-25T07:10:40.853Z,9.20
2017-11-25T07:13:08.161Z,8.73
2017-11-25T07:15:35.485Z,10.00
2017-11-25T07:18:03.155Z,8.67
2017-11-25T07:20:30.776Z,8.33
2017-11-25T07:22:58.440Z,8.40
2017-11-25T07:25:25.753Z,9.47
2017-11-25T07:27:53.050Z,9.10
2017-11-25T07:30:20.362Z,8.50
2017-11-25T07:32:47.668Z,8.20
2017-11-25T07:35:15.097Z,8.60
2017-11-25T07:37:42.773Z,9.37
2017-11-25T07:40:10.072Z,8.50
2017-11-25T07:42:37.437Z,8.80
2017-11-25T07:45:04.741Z,8.37
2017-11-25T07:47:32.102Z,9.67
2017-11-25T07:49:59.414Z,9.07
2017-11-25T07:52:27.127Z,8.50
2017-11-25T07:54:54.794Z,9.13
2017-11-25T07:57:22.616Z,8.10
2017-11-25T07:59:50.004Z,8.40
2017-11-25T08:02:17.346Z,8.53
2017-11-25T08:04:44.687Z,7.20
2017-11-25T08:07:12.946Z,7.17
2017-11-25T08:09:40.533Z,6.90
2017-11-25T08:12:07.836Z,6.63
2017-11-25T08:14:35.152Z,7.67
2017-11-25T08:17:02.466Z,7.13
2017-11-25T08:19:30.195Z,6.83
2017-11-25T08:21:57.817Z,6.93
2017-11-25T08:24:25.121Z,7.37
2017-11-25T08:26:52.433Z,6.03
2017-11-25T08:29:19.835Z,6.47
2017-11-25T08:31:47.182Z,6.50
2017-11-25T08:34:14.498Z,6.10
2017-11-25T08:36:41.829Z,6.37
2017-11-25T08:39:09.297Z,6.20
2017-11-25T08:41:36.620Z,6.13
2017-11-25T08:44:03.944Z,6.10
2017-11-25T08:46:31.569Z,4.80
2017-11-25T08:48:58.895Z,5.33
2017-11-25T08:51:26.465Z,5.87
2017-11-25T08:53:54.170Z,6.53
2017-11-25T08:56:21.804Z,6.13
2017-11-25T08:58:49.135Z,5.57
2017-11-25T09:01:16.808Z,5.23
2017-11-25T09:03:44.174Z,5.57
2017-11-25T09:06:11.469Z,5.57
2017-11-25T09:08:39.185Z,5.30
2017-11-25T09:11:06.949Z,5.17
2017-11-25T09:13:34.239Z,5.00
2017-11-25T09:16:01.670Z,5.07
2017-11-25T09:18:28.972Z,4.00
2017-11-25T09:20:56.284Z,4.97
2017-11-25T09:23:24.037Z,4.63
2017-11-25T09:25:51.341Z,4.83
2017-11-25T09:28:19.017Z,4.33
2017-11-25T09:30:46.740Z,4.90
2017-11-25T09:33:14.388Z,4.40
2017-11-25T09:35:42.052Z,4.40
2017-11-25T09:38:09.675Z,4.20
2017-11-25T09:40:37.417Z,5.57
2017-11-25T09:43:04.721Z,4.70
2017-11-25T09:45:32.874Z,4.87
2017-11-25T09:48:00.549Z,5.00
2017-11-25T09:50:27.846Z,5.50
2017-11-25T09:52:55.172Z,4.90
2017-11-25T09:55:22.800Z,4.53
2017-11-25T09:57:50.482Z,4.60
2017-11-25T10:00:17.767Z,5.23
2017-11-25T10:02:45.609Z,4.87
2017-11-25T10:05:12.902Z,5.30
2017-11-25T10:07:40.211Z,6.40
2017-11-25T10:10:07.517Z,6.40
2017-11-25T10:12:35.204Z,6.73
2017-11-25T10:15:02.576Z,7.70
2017-11-25T10:17:29.916Z,6.83
2017-11-25T10:19:57.295Z,7.13
2017-11-25T10:22:24.852Z,6.20
2017-11-25T10:24:52.206Z,6.40
2017-11-25T10:27:19.506Z,7.00
2017-11-25T10:29:46.815Z,6.17
2017-11-25T10:32:14.180Z,6.13
2017-11-25T10:34:41.803Z,5.20
2017-11-25T10:37:09.507Z,5.87
2017-11-25T10:39:37.132Z,5.67
2017-11-25T10:42:04.812Z,6.10
2017-11-25T10:44:32.112Z,5.83
2017-11-25T10:46:59.473Z,5.40
2017-11-25T10:49:26.762Z,5.60
2017-11-25T10:51:54.111Z,5.20
2017-11-25T10:54:21.867Z,5.20
2017-11-25T10:56:49.296Z,6.20
2017-11-25T10:59:17.018Z,5.63
2017-11-25T11:01:44.639Z,5.60
2017-11-25T11:04:12.787Z,5.37
2017-11-25T11:06:40.237Z,4.77
2017-11-25T11:09:07.954Z,4.57
2017-11-25T11:11:35.267Z,4.30
2017-11-25T11:14:02.601Z,4.47
2017-11-25T11:16:30.398Z,4.63
2017-11-25T11:18:57.786Z,4.60
2017-11-25T11:21:25.146Z,3.97
2017-11-25T11:23:52.508Z,4.50
2017-11-25T11:26:19.800Z,4.30
2017-11-25T11:28:47.111Z,3.83
2017-11-25T11:31:14.400Z,3.97
2017-11-25T11:33:41.704Z,4.50
2017-11-25T11:36:09.005Z,3.90
2017-11-25T11:38:36.319Z,3.83
2017-11-25T11:41:03.606Z,3.60
2017-11-25T11:43:31.561Z,3.53
2017-11-25T11:45:59.399Z,3.40
2017-11-25T11:48:26.758Z,2.93
2017-11-25T11:50:54.118Z,3.17
2017-11-25T11:53:21.568Z,3.30
2017-11-25T11:55:48.881Z,3.40
2017-11-25T11:58:16.237Z,2.90
2017-11-25T12:00:43.571Z,3.33
2017-11-25T12:03:11.392Z,3.07
2017-11-25T12:05:39.070Z,3.63
2017-11-25T12:08:06.843Z,3.53
2017-11-25T12:10:34.495Z,3.17
2017-11-25T12:13:02.122Z,3.20
2017-11-25T12:15:29.991Z,3.30
2017-11-25T12:17:57.327Z,3.03
2017-11-25T12:20:25.148Z,3.40
2017-11-25T12:22:52.781Z,3.10
2017-11-25T12:25:20.099Z,2.60
2017-11-25T12:27:47.384Z,2.63
2017-11-25T12:30:14.774Z,2.60
2017-11-25T12:32:42.612Z,3.50
2017-11-25T12:35:09.905Z,3.17
2017-11-25T12:37:37.666Z,2.67
2017-11-25T12:40:05.382Z,2.70
2017-11-25T12:42:33.266Z,3.27
2017-11-25T12:45:00.573Z,3.20
2017-11-25T12:47:27.974Z,3.10
2017-11-25T12:49:55.371Z,2.23
2017-11-25T12:52:23.328Z,2.60
2017-11-25T12:54:50.964Z,2.90
2017-11-25T12:57:18.421Z,3.00
2017-11-25T12:59:45.729Z,2.83
2017-11-25T13:02:13.045Z,2.00
2017-11-25T13:04:40.736Z,2.37
2017-11-25T13:07:08.353Z,2.43
2017-11-25T13:09:35.989Z,2.63
2017-11-25T13:12:03.372Z,2.20
2017-11-25T13:14:30.666Z,2.67
2017-11-25T13:16:58.083Z,2.40
2017-11-25T13:19:25.779Z,2.73
2017-11-25T13:21:53.100Z,2.80
2017-11-25T13:24:20.458Z,2.40
2017-11-25T13:26:48.099Z,2.50
2017-11-25T13:29:15.423Z,2.60
2017-11-25T13:31:42.812Z,2.20
2017-11-25T13:34:10.199Z,2.83
2017-11-25T13:36:37.481Z,2.30
2017-11-25T13:39:04.802Z,2.70
2017-11-25T13:41:32.315Z,2.50
2017-11-25T13:43:59.624Z,2.57
2017-11-25T13:46:27.221Z,2.10
2017-11-25T13:48:54.937Z,2.90
2017-11-25T13:51:22.459Z,2.20
2017-11-25T13:53:49.738Z,2.23
2017-11-25T13:56:17.378Z,2.40
2017-11-25T13:58:44.670Z,2.17
2017-11-25T14:01:12.390Z,2.23
2017-11-25T14:03:39.689Z,1.90
2017-11-25T14:06:07.018Z,1.90
2017-11-25T14:08:34.661Z,2.20
2017-11-25T14:11:02.315Z,2.17
2017-11-25T14:13:30.081Z,2.47
2017-11-25T14:15:57.741Z,2.67
2017-11-25T14:18:25.046Z,2.90
2017-11-25T14:20:52.367Z,2.90
2017-11-25T14:23:19.658Z,2.90
2017-11-25T14:25:47.065Z,2.53
2017-11-25T14:28:14.357Z,2.60
2017-11-25T14:30:42.466Z,2.50
2017-11-25T14:33:10.154Z,2.40
2017-11-25T14:35:37.472Z,2.27
2017-11-25T14:38:05.182Z,2.27
2017-11-25T14:40:32.478Z,2.27
2017-11-25T14:42:59.973Z,2.57
2017-11-25T14:45:27.642Z,2.70
2017-11-25T14:47:54.958Z,2.77
2017-11-25T14:50:22.770Z,2.40
2017-11-25T14:52:50.094Z,2.40
2017-11-25T14:55:17.465Z,2.73
2017-11-25T14:57:44.971Z,3.00
2017-11-25T15:00:12.301Z,3.00
2017-11-25T15:02:40.008Z,3.87
2017-11-25T15:05:07.453Z,4.20
2017-11-25T15:07:34.778Z,3.33
2017-11-25T15:10:02.213Z,3.23
2017-11-25T15:12:29.871Z,2.77
2017-11-25T15:14:57.236Z,3.10
2017-11-25T15:17:24.657Z,3.03
2017-11-25T15:19:52.371Z,3.50
2017-11-25T15:22:19.995Z,3.10
2017-11-25T15:24:47.677Z,3.33
2017-11-25T15:27:15.038Z,4.27
2017-11-25T15:29:43.123Z,4.23
2017-11-25T15:32:10.732Z,4.03
2017-11-25T15:34:38.437Z,4.10
2017-11-25T15:37:06.091Z,5.30
2017-11-25T15:39:33.764Z,4.90
2017-11-25T15:42:01.387Z,4.97
2017-11-25T15:44:28.766Z,4.20
2017-11-25T15:46:56.122Z,4.17
2017-11-25T15:49:23.419Z,3.77
2017-11-25T15:51:50.735Z,5.00
2017-11-25T15:54:18.369Z,4.47
2017-11-25T15:56:45.761Z,5.03
2017-11-25T15:59:13.406Z,3.90
2017-11-25T16:01:41.184Z,4.17
2017-11-25T16:04:08.627Z,3.70
2017-11-25T16:06:36.286Z,4.20
2017-11-25T16:09:03.935Z,3.50
2017-11-25T16:11:31.295Z,3.90
2017-11-25T16:13:58.608Z,4.30
2017-11-25T16:16:26.339Z,4.37
2017-11-25T16:18:53.946Z,5.87
2017-11-25T16:21:21.347Z,6.03
2017-11-25T16:23:48.666Z,7.00
2017-11-25T16:26:15.962Z,7.40
2017-11-25T16:28:43.609Z,8.83
2017-11-25T16:31:11.166Z,9.40
2017-11-25T16:33:38.842Z,9.63
2017-11-25T16:36:06.495Z,9.63
2017-11-25T16:38:34.242Z,9.33
2017-11-25T16:41:01.538Z,6.50
2017-11-25T16:43:28.965Z,5.17
2017-11-25T16:45:56.769Z,5.20
2017-11-25T16:48:24.361Z,5.50
2017-11-25T16:50:52.020Z,4.60
2017-11-25T16:53:19.390Z,4.80
2017-11-25T16:55:47.055Z,5.57
2017-11-25T16:58:14.345Z,4.47
2017-11-25T17:00:41.968Z,4.50
2017-11-25T17:03:09.272Z,5.07
2017-11-25T17:05:36.597Z,4.70
2017-11-25T17:08:04.252Z,4.63
2017-11-25T17:10:31.911Z,4.90
2017-11-25T17:12:59.590Z,4.90
2017-11-25T17:15:27.233Z,5.50
2017-11-25T17:17:54.965Z,5.30
2017-11-25T17:20:22.337Z,5.60
2017-11-25T17:22:49.666Z,5.57
2017-11-25T17:25:17.036Z,5.40
2017-11-25T17:27:44.401Z,5.60
2017-11-25T17:30:11.759Z,6.97
2017-11-25T17:32:39.050Z,7.40
2017-11-25T17:35:06.371Z,8.47
2017-11-25T17:37:33.928Z,8.27
2017-11-25T17:40:01.233Z,8.50
2017-11-25T17:42:28.627Z,8.80
2017-11-25T17:44:55.962Z,8.30
2017-11-25T17:47:23.342Z,8.33
2017-11-25T17:49:50.691Z,8.57
2017-11-25T17:52:18.025Z,8.60
2017-11-25T17:54:45.335Z,8.07
2017-11-25T17:57:12.948Z,8.30
2017-11-25T17:59:40.323Z,8.70
2017-11-25T18:02:08.062Z,8.13
2017-11-25T18:04:35.733Z,8.07
2017-11-25T18:07:03.041Z,7.90
2017-11-25T18:09:30.371Z,8.23
2017-11-25T18:11:57.697Z,7.43
2017-11-25T18:14:25.038Z,7.90
2017-11-25T18:16:53.173Z,7.33
2017-11-25T18:19:20.797Z,7.80
2017-11-25T18:21:48.465Z,8.07
2017-11-25T18:24:16.119Z,8.67
2017-11-25T18:26:43.413Z,9.03
2017-11-25T18:29:10.753Z,9.70
2017-11-25T18:31:38.370Z,9.80
2017-11-25T18:34:05.757Z,10.10
2017-11-25T18:36:33.223Z,10.63
2017-11-25T18:39:00.869Z,11.20
2017-11-25T18:41:28.635Z,10.83
2017-11-25T18:43:56.171Z,11.47
2017-11-25T18:46:23.844Z,12.00
2017-11-25T18:48:51.174Z,13.33
2017-11-25T18:51:18.655Z,12.57
2017-11-25T18:53:46.133Z,13.20
2017-11-25T18:56:13.468Z,12.80
2017-11-25T18:58:41.114Z,12.27
2017-11-25T19:01:08.498Z,13.57
2017-11-25T19:03:36.236Z,13.27
2017-11-25T19:06:03.614Z,12.13
2017-11-25T19:08:31.247Z,12.83
2017-11-25T19:10:59.031Z,13.10
2017-11-25T19:13:26.667Z,13.93
2017-11-25T19:15:54.067Z,12.57
2017-11-25T19:18:21.414Z,13.20
2017-11-25T19:20:49.082Z,15.07
2017-11-25T19:23:16.707Z,14.20
2017-11-25T19:25:44.075Z,13.80
2017-11-25T19:28:11.747Z,13.00
2017-11-25T19:30:39.381Z,13.30
2017-11-25T19:33:06.718Z,10.20
2017-11-25T19:35:34.219Z,13.00
2017-11-25T19:38:01.936Z,11.93
2017-11-25T19:40:30.273Z,11.40
2017-11-25T19:42:57.931Z,12.07
2017-11-25T19:45:25.231Z,11.43
2017-11-25T19:47:52.639Z,12.30
2017-11-25T19:50:20.349Z,12.00
2017-11-25T19:52:48.491Z,11.80
2017-11-25T19:55:16.107Z,10.45
2017-11-25T19:57:43.491Z,12.30
2017-11-25T20:00:11.303Z,13.30
2017-11-25T20:02:38.753Z,13.07
2017-11-25T20:05:06.474Z,12.27
2017-11-25T20:07:33.807Z,13.00
2017-11-25T20:10:01.129Z,13.20
2017-11-25T20:12:28.666Z,13.23
2017-11-25T20:14:56.012Z,12.10
2017-11-25T20:17:23.325Z,11.30
2017-11-25T20:19:50.645Z,11.83
2017-11-25T20:22:18.029Z,11.57
2017-11-25T20:24:45.358Z,12.77
2017-11-25T20:27:12.732Z,14.10
2017-11-25T20:29:40.054Z,12.63
2017-11-25T20:32:07.366Z,13.77
2017-11-25T20:34:35.089Z,14.57
2017-11-25T20:37:02.766Z,14.67
2017-11-25T20:39:30.123Z,12.80
2017-11-25T20:41:57.461Z,12.40
2017-11-25T20:44:25.149Z,13.57
2017-11-25T20:46:52.469Z,12.30
2017-11-25T20:49:19.958Z,14.20
2017-11-25T20:51:47.291Z,13.40
2017-11-25T20:54:15.013Z,13.63
2017-11-25T20:56:42.637Z,14.27
2017-11-25T20:59:10.034Z,14.10
2017-11-25T21:01:37.679Z,15.67
2017-11-25T21:04:05.337Z,14.63
2017-11-25T21:06:33.044Z,14.40
2017-11-25T21:09:00.455Z,15.10
2017-11-25T21:11:28.154Z,15.87
2017-11-25T21:13:55.476Z,16.07
2017-11-25T21:16:23.129Z,15.43
2017-11-25T21:18:50.787Z,15.30
2017-11-25T21:21:18.421Z,15.90
2017-11-25T21:23:45.734Z,16.03
2017-11-25T21:26:13.037Z,15.70
2017-11-25T21:28:40.367Z,15.60
2017-11-25T21:31:08.049Z,15.83
2017-11-25T21:33:35.496Z,16.30
2017-11-25T21:36:02.949Z,15.60
2017-11-25T21:38:30.342Z,15.60
2017-11-25T21:40:57.997Z,16.10
2017-11-25T21:43:25.657Z,16.40
2017-11-25T21:45:53.336Z,15.87
2017-11-25T21:48:20.966Z,15.67
2017-11-25T21:50:48.295Z,14.80
2017-11-25T21:53:16.001Z,16.10
2017-11-25T21:55:43.645Z,16.13
2017-11-25T21:58:10.970Z,14.43
2017-11-25T22:00:38.400Z,16.13
2017-11-25T22:03:05.730Z,16.83
2017-11-25T22:05:33.449Z,15.10
2017-11-25T22:08:01.119Z,15.77
2017-11-25T22:10:28.510Z,15.63
2017-11-25T22:12:56.150Z,16.50
2017-11-25T22:15:23.483Z,16.20
2017-11-25T22:17:50.875Z,18.87
2017-11-25T22:20:18.521Z,15.73
2017-11-25T22:22:45.839Z,17.10
2017-11-25T22:25:13.244Z,17.13
2017-11-25T22:27:40.878Z,16.97
2017-11-25T22:30:08.261Z,17.50
2017-11-25T22:32:35.901Z,17.33
2017-11-25T22:35:03.234Z,17.33
2017-11-25T22:37:30.618Z,18.20
2017-11-25T22:39:57.962Z,18.00
2017-11-25T22:42:25.618Z,17.20
2017-11-25T22:44:53.010Z,17.93
2017-11-25T22:47:20.380Z,16.90
2017-11-25T22:49:48.018Z,18.30
2017-11-25T22:52:15.343Z,15.80
2017-11-25T22:54:42.707Z,16.27
2017-11-25T22:57:10.043Z,18.53
2017-11-25T22:59:37.521Z,17.63
2017-11-25T23:02:04.864Z,17.10
2017-11-25T23:04:32.227Z,18.27
2017-11-25T23:06:59.564Z,19.40
2017-11-25T23:09:27.258Z,19.47
2017-11-25T23:11:55.197Z,19.47
2017-11-25T23:14:22.590Z,19.13
2017-11-25T23:16:50.247Z,18.93
2017-11-25T23:19:17.884Z,20.00
2017-11-25T23:21:45.214Z,20.23
2017-11-25T23:24:12.601Z,21.37
2017-11-25T23:26:39.924Z,22.00
2017-11-25T23:29:07.334Z,20.47
2017-11-25T23:31:35.330Z,21.20
2017-11-25T23:34:02.643Z,22.17
2017-11-25T23:36:30.285Z,20.90
2017-11-25T23:38:58.007Z,22.30
2017-11-25T23:41:25.332Z,18.90
2017-11-25T23:43:52.987Z,21.00
2017-11-25T23:46:20.653Z,20.40
2017-11-25T23:48:48.302Z,20.53
2017-11-25T23:51:15.613Z,23.23
2017-11-25T23:53:43.128Z,21.80
2017-11-25T23:56:10.763Z,20.43
2017-11-25T23:58:38.155Z,22.57
